sensor_id;sensor_type;location;lat;lon;timestamp;P1;durP1;ratioP1;P2;durP2;ratioP2
28373;SDS011;15616;40.148;-102.718;2023-02-24T00:01:58;7.10;;;2.85;;
28373;SDS011;15616;40.148;-102.718;2023-02-24T00:04:29;11.25;;;3.00;;
28373;SDS011;15616;40.148;-102.718;2023-02-24T00:06:57;6.80;;;2.50;;
28373;SDS011;15616;40.148;-102.718;2023-02-24T00:09:24;8.18;;;2.97;;
28373;SDS011;15616;40.148;-102.718;2023-02-24T00:14:21;9.90;;;2.67;;
28373;SDS011;15616;40.148;-102.718;2023-02-24T00:16:49;7.82;;;2.90;;
28373;SDS011;15616;40.148;-102.718;2023-02-24T00:19:17;9.95;;;3.08;;
28373;SDS011;15616;40.148;-102.718;2023-02-24T00:21:45;8.57;;;2.75;;
28373;SDS011;15616;40.148;-102.718;2023-02-24T00:24:11;8.85;;;2.42;;
28373;SDS011;15616;40.148;-102.718;2023-02-24T00:26:38;9.50;;;2.67;;
28373;SDS011;15616;40.148;-102.718;2023-02-24T00:29:05;9.57;;;3.30;;
28373;SDS011;15616;40.148;-102.718;2023-02-24T00:31:32;9.13;;;2.90;;
28373;SDS011;15616;40.148;-102.718;2023-02-24T00:33:59;7.95;;;2.88;;
28373;SDS011;15616;40.148;-102.718;2023-02-24T00:36:27;9.27;;;2.67;;
28373;SDS011;15616;40.148;-102.718;2023-02-24T00:38:55;9.65;;;3.05;;
28373;SDS011;15616;40.148;-102.718;2023-02-24T00:41:24;12.20;;;2.85;;
28373;SDS011;15616;40.148;-102.718;2023-02-24T00:43:57;9.32;;;2.95;;
28373;SDS011;15616;40.148;-102.718;2023-02-24T00:46:35;7.47;;;2.67;;
28373;SDS011;15616;40.148;-102.718;2023-02-24T00:49:07;11.30;;;2.92;;
28373;SDS011;15616;40.148;-102.718;2023-02-24T00:51:37;11.25;;;2.88;;
28373;SDS011;15616;40.148;-102.718;2023-02-24T00:54:05;8.43;;;3.03;;
28373;SDS011;15616;40.148;-102.718;2023-02-24T00:56:32;11.10;;;2.72;;
28373;SDS011;15616;40.148;-102.718;2023-02-24T00:58:59;11.30;;;2.88;;
28373;SDS011;15616;40.148;-102.718;2023-02-24T01:01:30;7.05;;;2.80;;
28373;SDS011;15616;40.148;-102.718;2023-02-24T01:03:57;9.30;;;2.88;;
28373;SDS011;15616;40.148;-102.718;2023-02-24T01:06:25;9.13;;;2.72;;
28373;SDS011;15616;40.148;-102.718;2023-02-24T01:08:53;11.48;;;2.80;;
28373;SDS011;15616;40.148;-102.718;2023-02-24T01:11:25;5.75;;;2.33;;
28373;SDS011;15616;40.148;-102.718;2023-02-24T01:14:12;8.48;;;3.03;;
28373;SDS011;15616;40.148;-102.718;2023-02-24T01:16:41;10.65;;;2.55;;
28373;SDS011;15616;40.148;-102.718;2023-02-24T01:19:17;7.57;;;2.60;;
28373;SDS011;15616;40.148;-102.718;2023-02-24T01:21:45;8.82;;;2.72;;
28373;SDS011;15616;40.148;-102.718;2023-02-24T01:24:15;9.95;;;2.78;;
28373;SDS011;15616;40.148;-102.718;2023-02-24T01:26:42;6.93;;;2.50;;
28373;SDS011;15616;40.148;-102.718;2023-02-24T01:29:08;5.93;;;2.35;;
28373;SDS011;15616;40.148;-102.718;2023-02-24T01:31:35;6.70;;;2.58;;
28373;SDS011;15616;40.148;-102.718;2023-02-24T01:34:03;8.73;;;2.90;;
28373;SDS011;15616;40.148;-102.718;2023-02-24T01:36:30;7.13;;;2.55;;
28373;SDS011;15616;40.148;-102.718;2023-02-24T01:38:58;8.90;;;2.85;;
28373;SDS011;15616;40.148;-102.718;2023-02-24T01:41:25;9.68;;;2.90;;
28373;SDS011;15616;40.148;-102.718;2023-02-24T01:43:53;7.15;;;2.50;;
28373;SDS011;15616;40.148;-102.718;2023-02-24T01:46:23;9.48;;;2.95;;
28373;SDS011;15616;40.148;-102.718;2023-02-24T01:48:51;8.63;;;2.72;;
28373;SDS011;15616;40.148;-102.718;2023-02-24T01:51:20;10.15;;;3.20;;
28373;SDS011;15616;40.148;-102.718;2023-02-24T01:53:46;12.27;;;3.13;;
28373;SDS011;15616;40.148;-102.718;2023-02-24T01:56:14;9.98;;;2.58;;
28373;SDS011;15616;40.148;-102.718;2023-02-24T01:58:40;8.80;;;2.75;;
28373;SDS011;15616;40.148;-102.718;2023-02-24T02:01:07;11.02;;;3.25;;
28373;SDS011;15616;40.148;-102.718;2023-02-24T02:03:35;6.68;;;2.53;;
28373;SDS011;15616;40.148;-102.718;2023-02-24T02:06:05;8.10;;;2.42;;
28373;SDS011;15616;40.148;-102.718;2023-02-24T02:08:37;7.95;;;2.65;;
28373;SDS011;15616;40.148;-102.718;2023-02-24T02:11:06;9.50;;;2.92;;
28373;SDS011;15616;40.148;-102.718;2023-02-24T02:13:34;7.30;;;2.70;;
28373;SDS011;15616;40.148;-102.718;2023-02-24T02:16:27;8.27;;;2.45;;
28373;SDS011;15616;40.148;-102.718;2023-02-24T02:38:26;7.93;;;2.53;;
28373;SDS011;15616;40.148;-102.718;2023-02-24T02:43:52;7.88;;;2.55;;
28373;SDS011;15616;40.148;-102.718;2023-02-24T02:46:33;8.35;;;2.50;;
28373;SDS011;15616;40.148;-102.718;2023-02-24T02:52:02;7.07;;;2.88;;
28373;SDS011;15616;40.148;-102.718;2023-02-24T02:57:41;8.67;;;2.40;;
28373;SDS011;15616;40.148;-102.718;2023-02-24T03:00:13;6.65;;;2.58;;
28373;SDS011;15616;40.148;-102.718;2023-02-24T03:02:50;10.90;;;2.88;;
28373;SDS011;15616;40.148;-102.718;2023-02-24T03:05:26;6.82;;;2.38;;
28373;SDS011;15616;40.148;-102.718;2023-02-24T03:08:01;8.10;;;2.67;;
28373;SDS011;15616;40.148;-102.718;2023-02-24T03:10:35;6.72;;;2.40;;
28373;SDS011;15616;40.148;-102.718;2023-02-24T03:13:03;7.70;;;2.65;;
28373;SDS011;15616;40.148;-102.718;2023-02-24T03:15:33;6.75;;;2.28;;
28373;SDS011;15616;40.148;-102.718;2023-02-24T03:18:07;6.10;;;2.45;;
28373;SDS011;15616;40.148;-102.718;2023-02-24T03:20:38;6.72;;;2.60;;
28373;SDS011;15616;40.148;-102.718;2023-02-24T03:23:31;10.07;;;2.80;;
28373;SDS011;15616;40.148;-102.718;2023-02-24T03:26:09;8.23;;;2.20;;
28373;SDS011;15616;40.148;-102.718;2023-02-24T03:29:28;9.93;;;2.42;;
28373;SDS011;15616;40.148;-102.718;2023-02-24T03:31:49;6.97;;;2.20;;
28373;SDS011;15616;40.148;-102.718;2023-02-24T03:37:03;8.27;;;2.78;;
28373;SDS011;15616;40.148;-102.718;2023-02-24T03:39:29;9.80;;;2.63;;
28373;SDS011;15616;40.148;-102.718;2023-02-24T03:42:10;7.82;;;2.50;;
28373;SDS011;15616;40.148;-102.718;2023-02-24T03:44:41;8.75;;;2.95;;
28373;SDS011;15616;40.148;-102.718;2023-02-24T03:47:07;8.00;;;2.65;;
28373;SDS011;15616;40.148;-102.718;2023-02-24T03:49:33;10.70;;;2.45;;
28373;SDS011;15616;40.148;-102.718;2023-02-24T03:52:50;8.38;;;2.85;;
28373;SDS011;15616;40.148;-102.718;2023-02-24T04:03:25;10.05;;;2.63;;
28373;SDS011;15616;40.148;-102.718;2023-02-24T04:06:30;8.82;;;2.67;;
28373;SDS011;15616;40.148;-102.718;2023-02-24T04:11:33;8.52;;;3.05;;
28373;SDS011;15616;40.148;-102.718;2023-02-24T04:14:05;7.18;;;2.55;;
28373;SDS011;15616;40.148;-102.718;2023-02-24T04:19:08;6.60;;;2.20;;
28373;SDS011;15616;40.148;-102.718;2023-02-24T04:21:42;11.45;;;2.90;;
28373;SDS011;15616;40.148;-102.718;2023-02-24T04:24:13;7.47;;;2.40;;
28373;SDS011;15616;40.148;-102.718;2023-02-24T04:26:42;8.65;;;2.55;;
28373;SDS011;15616;40.148;-102.718;2023-02-24T04:29:11;6.35;;;1.98;;
28373;SDS011;15616;40.148;-102.718;2023-02-24T04:31:47;8.48;;;2.67;;
28373;SDS011;15616;40.148;-102.718;2023-02-24T04:34:17;6.57;;;2.00;;
28373;SDS011;15616;40.148;-102.718;2023-02-24T04:36:46;6.35;;;2.28;;
28373;SDS011;15616;40.148;-102.718;2023-02-24T04:39:20;6.80;;;2.63;;
28373;SDS011;15616;40.148;-102.718;2023-02-24T04:41:47;8.82;;;2.30;;
28373;SDS011;15616;40.148;-102.718;2023-02-24T04:44:15;7.55;;;2.20;;
28373;SDS011;15616;40.148;-102.718;2023-02-24T04:46:42;8.15;;;2.33;;
28373;SDS011;15616;40.148;-102.718;2023-02-24T04:49:09;5.80;;;2.15;;
28373;SDS011;15616;40.148;-102.718;2023-02-24T04:51:35;6.82;;;2.47;;
28373;SDS011;15616;40.148;-102.718;2023-02-24T04:54:13;7.15;;;2.42;;
28373;SDS011;15616;40.148;-102.718;2023-02-24T04:56:42;9.00;;;2.25;;
28373;SDS011;15616;40.148;-102.718;2023-02-24T04:59:09;5.70;;;2.35;;
28373;SDS011;15616;40.148;-102.718;2023-02-24T05:01:36;8.18;;;2.45;;
28373;SDS011;15616;40.148;-102.718;2023-02-24T05:04:06;7.45;;;2.38;;
28373;SDS011;15616;40.148;-102.718;2023-02-24T05:06:33;4.88;;;1.98;;
28373;SDS011;15616;40.148;-102.718;2023-02-24T05:08:59;8.02;;;2.40;;
28373;SDS011;15616;40.148;-102.718;2023-02-24T05:11:26;5.75;;;2.15;;
28373;SDS011;15616;40.148;-102.718;2023-02-24T05:13:59;7.30;;;2.40;;
28373;SDS011;15616;40.148;-102.718;2023-02-24T05:16:25;8.10;;;2.50;;
28373;SDS011;15616;40.148;-102.718;2023-02-24T05:18:53;6.18;;;2.20;;
28373;SDS011;15616;40.148;-102.718;2023-02-24T05:21:39;7.40;;;2.50;;
28373;SDS011;15616;40.148;-102.718;2023-02-24T05:24:06;4.57;;;1.98;;
28373;SDS011;15616;40.148;-102.718;2023-02-24T05:26:33;7.13;;;2.42;;
28373;SDS011;15616;40.148;-102.718;2023-02-24T05:29:02;7.82;;;2.35;;
28373;SDS011;15616;40.148;-102.718;2023-02-24T05:31:29;6.80;;;1.85;;
28373;SDS011;15616;40.148;-102.718;2023-02-24T05:33:56;5.75;;;2.13;;
28373;SDS011;15616;40.148;-102.718;2023-02-24T05:36:24;5.50;;;2.17;;
28373;SDS011;15616;40.148;-102.718;2023-02-24T05:38:56;5.00;;;2.03;;
28373;SDS011;15616;40.148;-102.718;2023-02-24T05:41:23;9.65;;;2.45;;
28373;SDS011;15616;40.148;-102.718;2023-02-24T05:43:57;6.07;;;2.40;;
28373;SDS011;15616;40.148;-102.718;2023-02-24T05:46:27;6.53;;;2.60;;
28373;SDS011;15616;40.148;-102.718;2023-02-24T05:49:00;8.70;;;2.25;;
28373;SDS011;15616;40.148;-102.718;2023-02-24T05:51:29;5.18;;;2.25;;
28373;SDS011;15616;40.148;-102.718;2023-02-24T05:54:02;5.72;;;2.00;;
28373;SDS011;15616;40.148;-102.718;2023-02-24T05:56:34;6.40;;;2.10;;
28373;SDS011;15616;40.148;-102.718;2023-02-24T05:59:03;8.93;;;2.60;;
28373;SDS011;15616;40.148;-102.718;2023-02-24T06:01:37;6.38;;;2.20;;
28373;SDS011;15616;40.148;-102.718;2023-02-24T06:04:09;7.30;;;2.70;;
28373;SDS011;15616;40.148;-102.718;2023-02-24T06:06:45;8.05;;;2.30;;
28373;SDS011;15616;40.148;-102.718;2023-02-24T06:09:19;8.45;;;2.15;;
28373;SDS011;15616;40.148;-102.718;2023-02-24T06:11:47;10.80;;;2.30;;
28373;SDS011;15616;40.148;-102.718;2023-02-24T06:14:14;7.72;;;2.53;;
28373;SDS011;15616;40.148;-102.718;2023-02-24T06:16:40;11.52;;;2.33;;
28373;SDS011;15616;40.148;-102.718;2023-02-24T06:19:10;6.88;;;2.50;;
28373;SDS011;15616;40.148;-102.718;2023-02-24T06:21:38;12.20;;;2.72;;
28373;SDS011;15616;40.148;-102.718;2023-02-24T06:24:06;13.10;;;2.58;;
28373;SDS011;15616;40.148;-102.718;2023-02-24T06:26:40;13.90;;;2.67;;
28373;SDS011;15616;40.148;-102.718;2023-02-24T06:29:15;10.18;;;2.58;;
28373;SDS011;15616;40.148;-102.718;2023-02-24T06:31:42;9.73;;;2.63;;
28373;SDS011;15616;40.148;-102.718;2023-02-24T06:34:09;9.00;;;2.40;;
28373;SDS011;15616;40.148;-102.718;2023-02-24T06:36:37;8.60;;;3.05;;
28373;SDS011;15616;40.148;-102.718;2023-02-24T06:39:03;6.97;;;2.30;;
28373;SDS011;15616;40.148;-102.718;2023-02-24T06:41:34;5.75;;;2.15;;
28373;SDS011;15616;40.148;-102.718;2023-02-24T06:44:02;9.50;;;2.47;;
28373;SDS011;15616;40.148;-102.718;2023-02-24T06:46:28;9.30;;;2.25;;
28373;SDS011;15616;40.148;-102.718;2023-02-24T06:48:55;6.97;;;2.30;;
28373;SDS011;15616;40.148;-102.718;2023-02-24T06:51:22;8.43;;;2.22;;
28373;SDS011;15616;40.148;-102.718;2023-02-24T06:53:49;12.93;;;2.42;;
28373;SDS011;15616;40.148;-102.718;2023-02-24T06:56:16;6.40;;;2.05;;
28373;SDS011;15616;40.148;-102.718;2023-02-24T06:58:53;20.08;;;2.58;;
28373;SDS011;15616;40.148;-102.718;2023-02-24T07:01:21;10.35;;;2.80;;
28373;SDS011;15616;40.148;-102.718;2023-02-24T07:03:50;21.30;;;2.63;;
28373;SDS011;15616;40.148;-102.718;2023-02-24T07:06:45;7.13;;;2.33;;
28373;SDS011;15616;40.148;-102.718;2023-02-24T07:09:16;14.90;;;2.45;;
28373;SDS011;15616;40.148;-102.718;2023-02-24T07:11:46;18.92;;;2.67;;
28373;SDS011;15616;40.148;-102.718;2023-02-24T07:14:20;11.23;;;2.22;;
28373;SDS011;15616;40.148;-102.718;2023-02-24T07:16:50;11.15;;;2.60;;
28373;SDS011;15616;40.148;-102.718;2023-02-24T07:19:29;10.02;;;2.53;;
28373;SDS011;15616;40.148;-102.718;2023-02-24T07:21:57;10.63;;;2.72;;
28373;SDS011;15616;40.148;-102.718;2023-02-24T07:24:25;9.65;;;2.05;;
28373;SDS011;15616;40.148;-102.718;2023-02-24T07:27:13;12.23;;;2.97;;
28373;SDS011;15616;40.148;-102.718;2023-02-24T07:29:46;10.35;;;2.63;;
28373;SDS011;15616;40.148;-102.718;2023-02-24T07:32:14;16.13;;;2.72;;
28373;SDS011;15616;40.148;-102.718;2023-02-24T07:34:42;17.00;;;2.67;;
28373;SDS011;15616;40.148;-102.718;2023-02-24T07:37:08;14.93;;;2.97;;
28373;SDS011;15616;40.148;-102.718;2023-02-24T07:39:36;11.57;;;2.92;;
28373;SDS011;15616;40.148;-102.718;2023-02-24T07:42:04;12.70;;;2.30;;
28373;SDS011;15616;40.148;-102.718;2023-02-24T07:44:31;15.05;;;3.03;;
28373;SDS011;15616;40.148;-102.718;2023-02-24T07:46:57;15.68;;;2.53;;
28373;SDS011;15616;40.148;-102.718;2023-02-24T07:49:24;17.83;;;3.45;;
28373;SDS011;15616;40.148;-102.718;2023-02-24T07:51:52;16.15;;;2.65;;
28373;SDS011;15616;40.148;-102.718;2023-02-24T07:54:22;22.92;;;3.40;;
28373;SDS011;15616;40.148;-102.718;2023-02-24T07:56:51;25.63;;;2.80;;
28373;SDS011;15616;40.148;-102.718;2023-02-24T08:01:56;13.00;;;2.88;;
28373;SDS011;15616;40.148;-102.718;2023-02-24T08:04:24;14.45;;;2.75;;
28373;SDS011;15616;40.148;-102.718;2023-02-24T08:06:52;18.35;;;2.97;;
28373;SDS011;15616;40.148;-102.718;2023-02-24T08:09:25;15.80;;;2.83;;
28373;SDS011;15616;40.148;-102.718;2023-02-24T08:12:17;13.90;;;2.88;;
28373;SDS011;15616;40.148;-102.718;2023-02-24T08:14:46;30.23;;;3.22;;
28373;SDS011;15616;40.148;-102.718;2023-02-24T08:17:17;29.38;;;3.25;;
28373;SDS011;15616;40.148;-102.718;2023-02-24T08:19:48;18.52;;;3.25;;
28373;SDS011;15616;40.148;-102.718;2023-02-24T08:22:20;27.92;;;2.65;;
28373;SDS011;15616;40.148;-102.718;2023-02-24T08:24:57;9.93;;;2.58;;
28373;SDS011;15616;40.148;-102.718;2023-02-24T08:27:31;17.23;;;2.65;;
28373;SDS011;15616;40.148;-102.718;2023-02-24T08:30:03;17.95;;;3.17;;
28373;SDS011;15616;40.148;-102.718;2023-02-24T08:32:34;8.48;;;2.35;;
28373;SDS011;15616;40.148;-102.718;2023-02-24T08:35:14;8.82;;;2.65;;
28373;SDS011;15616;40.148;-102.718;2023-02-24T08:37:43;16.80;;;2.72;;
28373;SDS011;15616;40.148;-102.718;2023-02-24T08:40:14;10.40;;;2.67;;
28373;SDS011;15616;40.148;-102.718;2023-02-24T08:43:15;15.60;;;2.90;;
28373;SDS011;15616;40.148;-102.718;2023-02-24T08:48:35;13.98;;;2.63;;
28373;SDS011;15616;40.148;-102.718;2023-02-24T08:53:28;24.85;;;3.50;;
28373;SDS011;15616;40.148;-102.718;2023-02-24T08:55:58;20.30;;;3.47;;
28373;SDS011;15616;40.148;-102.718;2023-02-24T08:58:37;24.67;;;3.33;;
28373;SDS011;15616;40.148;-102.718;2023-02-24T09:01:05;16.95;;;2.88;;
28373;SDS011;15616;40.148;-102.718;2023-02-24T09:03:44;36.95;;;3.42;;
28373;SDS011;15616;40.148;-102.718;2023-02-24T09:06:12;16.65;;;3.03;;
28373;SDS011;15616;40.148;-102.718;2023-02-24T09:08:50;24.75;;;2.80;;
28373;SDS011;15616;40.148;-102.718;2023-02-24T09:11:38;11.38;;;2.38;;
28373;SDS011;15616;40.148;-102.718;2023-02-24T09:14:09;27.02;;;3.58;;
28373;SDS011;15616;40.148;-102.718;2023-02-24T09:16:41;18.52;;;3.15;;
28373;SDS011;15616;40.148;-102.718;2023-02-24T09:19:36;32.42;;;3.97;;
28373;SDS011;15616;40.148;-102.718;2023-02-24T09:22:17;37.97;;;3.72;;
28373;SDS011;15616;40.148;-102.718;2023-02-24T09:25:22;27.63;;;4.05;;
28373;SDS011;15616;40.148;-102.718;2023-02-24T09:27:54;26.42;;;3.75;;
28373;SDS011;15616;40.148;-102.718;2023-02-24T09:30:32;21.05;;;3.15;;
28373;SDS011;15616;40.148;-102.718;2023-02-24T09:33:22;21.92;;;3.40;;
28373;SDS011;15616;40.148;-102.718;2023-02-24T09:36:15;18.92;;;3.20;;
28373;SDS011;15616;40.148;-102.718;2023-02-24T09:38:55;32.50;;;3.38;;
28373;SDS011;15616;40.148;-102.718;2023-02-24T09:44:39;35.13;;;4.13;;
28373;SDS011;15616;40.148;-102.718;2023-02-24T09:47:13;31.35;;;3.80;;
28373;SDS011;15616;40.148;-102.718;2023-02-24T09:52:45;24.40;;;3.80;;
28373;SDS011;15616;40.148;-102.718;2023-02-24T09:55:18;28.10;;;3.17;;
28373;SDS011;15616;40.148;-102.718;2023-02-24T10:03:32;38.85;;;4.13;;
28373;SDS011;15616;40.148;-102.718;2023-02-24T10:06:24;22.00;;;3.42;;
28373;SDS011;15616;40.148;-102.718;2023-02-24T10:09:05;25.38;;;3.65;;
28373;SDS011;15616;40.148;-102.718;2023-02-24T10:11:57;19.77;;;3.72;;
28373;SDS011;15616;40.148;-102.718;2023-02-24T10:14:46;17.10;;;2.83;;
28373;SDS011;15616;40.148;-102.718;2023-02-24T10:17:53;28.98;;;4.05;;
28373;SDS011;15616;40.148;-102.718;2023-02-24T10:20:23;28.05;;;3.15;;
28373;SDS011;15616;40.148;-102.718;2023-02-24T10:26:10;25.60;;;3.25;;
28373;SDS011;15616;40.148;-102.718;2023-02-24T10:32:02;31.75;;;4.07;;
28373;SDS011;15616;40.148;-102.718;2023-02-24T10:34:58;22.02;;;4.30;;
28373;SDS011;15616;40.148;-102.718;2023-02-24T10:37:25;15.93;;;3.63;;
28373;SDS011;15616;40.148;-102.718;2023-02-24T10:40:03;27.90;;;3.38;;
28373;SDS011;15616;40.148;-102.718;2023-02-24T10:42:34;36.78;;;4.18;;
28373;SDS011;15616;40.148;-102.718;2023-02-24T10:45:23;30.20;;;4.25;;
28373;SDS011;15616;40.148;-102.718;2023-02-24T10:47:54;24.30;;;3.40;;
28373;SDS011;15616;40.148;-102.718;2023-02-24T10:52:50;18.25;;;3.47;;
28373;SDS011;15616;40.148;-102.718;2023-02-24T10:55:32;19.70;;;3.47;;
28373;SDS011;15616;40.148;-102.718;2023-02-24T10:58:13;23.10;;;3.30;;
28373;SDS011;15616;40.148;-102.718;2023-02-24T11:01:12;26.80;;;3.33;;
28373;SDS011;15616;40.148;-102.718;2023-02-24T11:04:07;20.33;;;2.90;;
28373;SDS011;15616;40.148;-102.718;2023-02-24T11:07:14;28.38;;;4.07;;
28373;SDS011;15616;40.148;-102.718;2023-02-24T11:12:46;21.98;;;2.97;;
28373;SDS011;15616;40.148;-102.718;2023-02-24T11:15:32;23.42;;;4.53;;
28373;SDS011;15616;40.148;-102.718;2023-02-24T11:18:23;20.67;;;3.40;;
28373;SDS011;15616;40.148;-102.718;2023-02-24T11:20:56;26.67;;;3.80;;
28373;SDS011;15616;40.148;-102.718;2023-02-24T11:26:02;22.00;;;3.28;;
28373;SDS011;15616;40.148;-102.718;2023-02-24T11:34:20;37.22;;;4.03;;
28373;SDS011;15616;40.148;-102.718;2023-02-24T11:37:13;14.70;;;2.97;;
28373;SDS011;15616;40.148;-102.718;2023-02-24T11:40:17;21.63;;;3.25;;
28373;SDS011;15616;40.148;-102.718;2023-02-24T11:42:54;24.70;;;3.70;;
28373;SDS011;15616;40.148;-102.718;2023-02-24T11:45:37;13.70;;;3.60;;
28373;SDS011;15616;40.148;-102.718;2023-02-24T11:48:11;27.00;;;3.95;;
28373;SDS011;15616;40.148;-102.718;2023-02-24T11:50:53;18.75;;;3.60;;
28373;SDS011;15616;40.148;-102.718;2023-02-24T11:58:48;20.63;;;3.42;;
28373;SDS011;15616;40.148;-102.718;2023-02-24T12:01:21;22.30;;;3.60;;
28373;SDS011;15616;40.148;-102.718;2023-02-24T12:06:51;23.38;;;3.58;;
28373;SDS011;15616;40.148;-102.718;2023-02-24T12:09:25;30.58;;;3.97;;
28373;SDS011;15616;40.148;-102.718;2023-02-24T12:14:46;34.50;;;4.05;;
28373;SDS011;15616;40.148;-102.718;2023-02-24T12:20:03;18.90;;;3.50;;
28373;SDS011;15616;40.148;-102.718;2023-02-24T12:22:36;28.77;;;4.20;;
28373;SDS011;15616;40.148;-102.718;2023-02-24T12:25:11;30.33;;;3.55;;
28373;SDS011;15616;40.148;-102.718;2023-02-24T12:28:13;34.13;;;3.88;;
28373;SDS011;15616;40.148;-102.718;2023-02-24T12:36:40;33.33;;;4.10;;
28373;SDS011;15616;40.148;-102.718;2023-02-24T12:39:19;25.75;;;3.92;;
28373;SDS011;15616;40.148;-102.718;2023-02-24T12:44:52;24.52;;;3.10;;
28373;SDS011;15616;40.148;-102.718;2023-02-24T12:52:52;23.63;;;3.65;;
28373;SDS011;15616;40.148;-102.718;2023-02-24T13:03:23;20.42;;;3.60;;
28373;SDS011;15616;40.148;-102.718;2023-02-24T13:08:41;14.95;;;3.10;;
28373;SDS011;15616;40.148;-102.718;2023-02-24T13:16:43;20.25;;;3.15;;
28373;SDS011;15616;40.148;-102.718;2023-02-24T13:24:38;21.65;;;3.60;;
28373;SDS011;15616;40.148;-102.718;2023-02-24T13:27:22;14.00;;;3.47;;
28373;SDS011;15616;40.148;-102.718;2023-02-24T13:30:00;26.52;;;3.38;;
28373;SDS011;15616;40.148;-102.718;2023-02-24T13:32:57;24.73;;;3.70;;
28373;SDS011;15616;40.148;-102.718;2023-02-24T13:37:51;19.23;;;3.50;;
28373;SDS011;15616;40.148;-102.718;2023-02-24T13:45:28;15.38;;;2.85;;
28373;SDS011;15616;40.148;-102.718;2023-02-24T13:59:10;21.98;;;3.67;;
28373;SDS011;15616;40.148;-102.718;2023-02-24T14:02:18;31.63;;;4.20;;
28373;SDS011;15616;40.148;-102.718;2023-02-24T14:07:25;34.72;;;4.00;;
28373;SDS011;15616;40.148;-102.718;2023-02-24T14:09:56;29.88;;;3.40;;
28373;SDS011;15616;40.148;-102.718;2023-02-24T14:12:29;23.70;;;3.17;;
28373;SDS011;15616;40.148;-102.718;2023-02-24T14:14:56;24.92;;;3.70;;
28373;SDS011;15616;40.148;-102.718;2023-02-24T14:17:31;18.90;;;3.90;;
28373;SDS011;15616;40.148;-102.718;2023-02-24T14:25:13;19.85;;;3.42;;
28373;SDS011;15616;40.148;-102.718;2023-02-24T14:27:41;15.43;;;3.15;;
28373;SDS011;15616;40.148;-102.718;2023-02-24T14:33:01;29.90;;;3.50;;
28373;SDS011;15616;40.148;-102.718;2023-02-24T14:37:54;28.95;;;4.40;;
28373;SDS011;15616;40.148;-102.718;2023-02-24T14:40:22;22.20;;;3.55;;
28373;SDS011;15616;40.148;-102.718;2023-02-24T14:42:50;43.15;;;4.65;;
28373;SDS011;15616;40.148;-102.718;2023-02-24T14:45:20;14.25;;;3.20;;
28373;SDS011;15616;40.148;-102.718;2023-02-24T14:47:51;40.28;;;4.43;;
28373;SDS011;15616;40.148;-102.718;2023-02-24T14:50:18;57.05;;;3.90;;
28373;SDS011;15616;40.148;-102.718;2023-02-24T14:53:04;33.50;;;4.00;;
28373;SDS011;15616;40.148;-102.718;2023-02-24T14:55:35;22.83;;;3.42;;
28373;SDS011;15616;40.148;-102.718;2023-02-24T14:58:15;32.65;;;3.97;;
28373;SDS011;15616;40.148;-102.718;2023-02-24T15:01:00;26.20;;;3.65;;
28373;SDS011;15616;40.148;-102.718;2023-02-24T15:03:36;22.88;;;3.70;;
28373;SDS011;15616;40.148;-102.718;2023-02-24T15:06:17;27.45;;;3.97;;
28373;SDS011;15616;40.148;-102.718;2023-02-24T15:08:59;21.27;;;3.38;;
28373;SDS011;15616;40.148;-102.718;2023-02-24T15:11:28;30.55;;;3.78;;
28373;SDS011;15616;40.148;-102.718;2023-02-24T15:13:57;35.40;;;3.45;;
28373;SDS011;15616;40.148;-102.718;2023-02-24T15:16:26;17.10;;;3.30;;
28373;SDS011;15616;40.148;-102.718;2023-02-24T15:19:02;20.30;;;3.38;;
28373;SDS011;15616;40.148;-102.718;2023-02-24T15:21:29;27.33;;;3.92;;
28373;SDS011;15616;40.148;-102.718;2023-02-24T15:24:00;23.90;;;3.63;;
28373;SDS011;15616;40.148;-102.718;2023-02-24T15:26:30;20.60;;;3.50;;
28373;SDS011;15616;40.148;-102.718;2023-02-24T15:29:14;21.15;;;3.55;;
28373;SDS011;15616;40.148;-102.718;2023-02-24T15:31:45;12.85;;;3.00;;
28373;SDS011;15616;40.148;-102.718;2023-02-24T15:34:14;21.85;;;3.05;;
28373;SDS011;15616;40.148;-102.718;2023-02-24T15:36:56;18.63;;;3.33;;
28373;SDS011;15616;40.148;-102.718;2023-02-24T15:39:29;27.38;;;3.85;;
28373;SDS011;15616;40.148;-102.718;2023-02-24T15:42:07;21.05;;;3.08;;
28373;SDS011;15616;40.148;-102.718;2023-02-24T15:45:00;28.35;;;3.50;;
28373;SDS011;15616;40.148;-102.718;2023-02-24T15:47:41;18.73;;;3.33;;
28373;SDS011;15616;40.148;-102.718;2023-02-24T15:50:09;19.20;;;3.22;;
28373;SDS011;15616;40.148;-102.718;2023-02-24T15:52:37;22.63;;;3.65;;
28373;SDS011;15616;40.148;-102.718;2023-02-24T15:55:04;17.30;;;3.72;;
28373;SDS011;15616;40.148;-102.718;2023-02-24T15:57:31;24.98;;;3.63;;
28373;SDS011;15616;40.148;-102.718;2023-02-24T15:59:58;19.35;;;3.45;;
28373;SDS011;15616;40.148;-102.718;2023-02-24T16:02:24;19.67;;;4.03;;
28373;SDS011;15616;40.148;-102.718;2023-02-24T16:04:50;21.50;;;3.58;;
28373;SDS011;15616;40.148;-102.718;2023-02-24T16:07:18;14.65;;;3.25;;
28373;SDS011;15616;40.148;-102.718;2023-02-24T16:09:48;18.67;;;2.90;;
28373;SDS011;15616;40.148;-102.718;2023-02-24T16:12:32;25.67;;;3.58;;
28373;SDS011;15616;40.148;-102.718;2023-02-24T16:15:02;26.77;;;3.30;;
28373;SDS011;15616;40.148;-102.718;2023-02-24T16:17:31;19.92;;;3.50;;
28373;SDS011;15616;40.148;-102.718;2023-02-24T16:20:03;14.48;;;2.75;;
28373;SDS011;15616;40.148;-102.718;2023-02-24T16:22:33;17.42;;;3.17;;
28373;SDS011;15616;40.148;-102.718;2023-02-24T16:25:00;15.27;;;3.25;;
28373;SDS011;15616;40.148;-102.718;2023-02-24T16:27:26;15.20;;;2.97;;
28373;SDS011;15616;40.148;-102.718;2023-02-24T16:29:54;18.05;;;3.42;;
28373;SDS011;15616;40.148;-102.718;2023-02-24T16:32:21;11.95;;;2.92;;
28373;SDS011;15616;40.148;-102.718;2023-02-24T16:34:50;18.38;;;3.38;;
28373;SDS011;15616;40.148;-102.718;2023-02-24T16:37:17;15.63;;;2.78;;
28373;SDS011;15616;40.148;-102.718;2023-02-24T16:39:45;16.05;;;3.40;;
28373;SDS011;15616;40.148;-102.718;2023-02-24T16:42:14;13.20;;;3.17;;
28373;SDS011;15616;40.148;-102.718;2023-02-24T16:44:41;14.18;;;3.20;;
28373;SDS011;15616;40.148;-102.718;2023-02-24T16:47:07;12.40;;;3.22;;
28373;SDS011;15616;40.148;-102.718;2023-02-24T16:49:38;18.30;;;3.28;;
28373;SDS011;15616;40.148;-102.718;2023-02-24T16:52:05;17.65;;;3.42;;
28373;SDS011;15616;40.148;-102.718;2023-02-24T16:54:31;18.90;;;3.33;;
28373;SDS011;15616;40.148;-102.718;2023-02-24T16:56:56;13.93;;;3.35;;
28373;SDS011;15616;40.148;-102.718;2023-02-24T16:59:22;15.95;;;3.00;;
28373;SDS011;15616;40.148;-102.718;2023-02-24T17:01:52;14.05;;;3.15;;
28373;SDS011;15616;40.148;-102.718;2023-02-24T17:04:19;16.35;;;3.22;;
28373;SDS011;15616;40.148;-102.718;2023-02-24T17:06:46;14.15;;;3.08;;
28373;SDS011;15616;40.148;-102.718;2023-02-24T17:09:12;14.20;;;3.30;;
28373;SDS011;15616;40.148;-102.718;2023-02-24T17:11:40;12.30;;;2.88;;
28373;SDS011;15616;40.148;-102.718;2023-02-24T17:14:13;14.48;;;3.30;;
28373;SDS011;15616;40.148;-102.718;2023-02-24T17:16:41;9.88;;;3.00;;
28373;SDS011;15616;40.148;-102.718;2023-02-24T17:19:07;12.93;;;2.92;;
28373;SDS011;15616;40.148;-102.718;2023-02-24T17:21:33;17.00;;;2.80;;
28373;SDS011;15616;40.148;-102.718;2023-02-24T17:24:06;13.20;;;3.05;;